Time;durP1;ratioP1;P1;durP2;ratioP2;P2;SDS_P1;SDS_P2;PMS_P1;PMS_P2;Temp;Humidity;BMP_temperature;BMP_pressure;BME280_temperature;BME280_humidity;BME280_pressure;Samples;Min_cycle;Max_cycle;Signal;HPM_P1;HPM_P2
2021/05/26 04:39:17;;;;;;;15.38;8.73;;;;;;;16.71;80.96;100477.79;1689144;83;21207;-40
2021/05/26 04:41:45;;;;;;;15.05;7.97;;;;;;;16.93;80.54;100480.37;1713332;82;21043;-36
2021/05/26 04:44:11;;;;;;;15.60;9.20;;;;;;;17.06;80.47;100475.66;1715520;82;21113;-39
2021/05/26 04:46:39;;;;;;;11.08;7.97;;;;;;;17.23;80.60;100475.25;1713086;82;21082;-39
2021/05/26 04:49:06;;;;;;;15.72;7.40;;;;;;;17.39;80.12;100477.04;1725443;82;21643;-40
2021/05/26 04:51:33;;;;;;;11.57;6.78;;;;;;;17.55;79.74;100479.72;1716664;82;21043;-40
2021/05/26 04:54:00;;;;;;;10.25;6.20;;;;;;;17.69;79.36;100488.64;1714002;82;21249;-39
2021/05/26 04:56:27;;;;;;;12.85;5.87;;;;;;;17.85;79.04;100486.47;1688259;83;21046;-39
2021/05/26 04:58:54;;;;;;;8.25;5.95;;;;;;;17.97;78.50;100481.70;1720624;82;21058;-39
2021/05/26 05:01:21;;;;;;;12.07;6.80;;;;;;;18.11;77.35;100483.12;1718811;82;21696;-39
2021/05/26 05:03:48;;;;;;;10.28;6.75;;;;;;;18.22;77.25;100487.66;1716872;82;21110;-39
2021/05/26 05:06:15;;;;;;;8.50;6.12;;;;;;;18.34;76.38;100483.34;1682458;83;21123;-39
2021/05/26 05:08:43;;;;;;;7.85;5.75;;;;;;;18.48;75.93;100481.14;1719861;82;21106;-39
2021/05/26 05:11:12;;;;;;;16.45;6.75;;;;;;;18.63;75.01;100488.23;1710174;82;21025;-34
2021/05/26 05:13:40;;;;;;;10.20;6.83;;;;;;;18.77;73.82;100488.70;1716555;82;21519;-39
2021/05/26 05:16:08;;;;;;;12.05;8.18;;;;;;;18.91;73.62;100481.20;1704769;82;21025;-40
2021/05/26 05:18:35;;;;;;;10.93;7.95;;;;;;;19.04;72.23;100482.55;1709961;81;21094;-41
2021/05/26 05:21:05;;;;;;;10.10;6.72;;;;;;;19.14;71.77;100478.69;1713901;81;21594;-34
2021/05/26 05:23:34;;;;;;;12.43;5.70;;;;;;;19.25;71.59;100474.80;1712702;82;21111;-39
2021/05/26 05:26:38;;;;;;;13.68;5.78;;;;;;;19.35;69.58;100474.91;1680174;83;21604;-35
2021/05/26 05:29:53;;;;;;;58.05;15.10;;;;;;;19.49;68.90;100479.31;1679129;83;21118;-41
2021/05/26 05:33:22;;;;;;;16.10;6.60;;;;;;;19.65;69.11;100477.02;1713477;82;21214;-38
2021/05/26 05:40:55;;;;;;;7.35;5.33;;;;;;;19.99;67.24;100480.68;1708972;81;21333;-40
2021/05/26 05:44:36;;;;;;;10.48;6.08;;;;;;;20.17;64.58;100480.01;1701000;82;21216;-41
2021/05/26 05:51:36;;;;;;;9.30;5.28;;;;;;;20.39;64.30;100481.41;1712874;82;21093;-35
2021/05/26 05:54:57;;;;;;;16.67;5.92;;;;;;;20.54;62.45;100481.34;1679457;83;21717;-39
2021/05/26 05:57:38;;;;;;;18.35;6.20;;;;;;;20.69;62.73;100488.71;1684244;83;21645;-36
2021/05/26 06:03:34;;;;;;;15.98;6.35;;;;;;;20.92;61.99;100489.61;1740907;80;22583;-42
2021/05/26 06:06:57;;;;;;;19.95;6.67;;;;;;;21.06;61.65;100485.95;1745700;80;21635;-43
2021/05/26 06:09:55;;;;;;;9.70;5.65;;;;;;;21.22;60.82;100489.73;1746353;80;21034;-36
2021/05/26 06:13:10;;;;;;;8.85;5.28;;;;;;;21.37;60.68;100488.72;1744953;80;21105;-37
2021/05/26 06:16:16;;;;;;;13.60;5.97;;;;;;;21.48;59.29;100478.49;1749194;79;21790;-37
2021/05/26 06:24:37;;;;;;;10.23;5.90;;;;;;;21.64;57.21;100475.59;1695306;82;22464;-39
2021/05/26 06:32:40;;;;;;;8.93;6.00;;;;;;;21.54;55.90;100490.20;1707669;82;21111;-39
2021/05/26 06:39:25;;;;;;;9.98;5.45;;;;;;;21.46;55.72;100483.02;1689750;82;21140;-35
2021/05/26 06:42:56;;;;;;;5.80;5.08;;;;;;;21.43;56.35;100484.00;1711568;82;21519;-35
2021/05/26 06:46:20;;;;;;;6.33;5.00;;;;;;;21.42;55.15;100487.59;1711812;82;21547;-35
2021/05/26 06:49:12;;;;;;;7.22;4.75;;;;;;;21.42;54.69;100481.41;1685360;82;21657;-35
2021/05/26 06:51:47;;;;;;;7.87;4.95;;;;;;;21.45;55.80;100470.62;1710827;82;21137;-36
2021/05/26 06:54:17;;;;;;;9.00;5.25;;;;;;;21.52;54.71;100464.13;1678336;84;21122;-40
2021/05/26 06:56:46;;;;;;;9.15;4.75;;;;;;;21.58;56.31;100466.53;1680642;84;21156;-35
2021/05/26 06:59:15;;;;;;;7.12;4.35;;;;;;;21.64;54.83;100468.06;1676913;82;21102;-35
2021/05/26 07:01:51;;;;;;;5.90;4.05;;;;;;;21.63;55.00;100464.55;1684182;82;21520;-40
2021/05/26 07:04:18;;;;;;;6.42;5.08;;;;;;;21.62;54.93;100460.13;1680465;84;21053;-40
2021/05/26 07:06:45;;;;;;;4.53;4.10;;;;;;;21.67;55.03;100467.45;1711609;82;21069;-40
2021/05/26 07:09:13;;;;;;;6.87;5.00;;;;;;;21.72;55.99;100462.80;1709224;82;21058;-39
2021/05/26 07:11:57;;;;;;;7.83;5.40;;;;;;;21.84;56.29;100456.53;1708613;82;21112;-35
2021/05/26 07:18:46;;;;;;;5.95;4.62;;;;;;;22.09;55.50;100455.86;1692129;82;21117;-40
2021/05/26 07:22:10;;;;;;;9.98;4.97;;;;;;;22.11;53.95;100454.48;1723590;81;21109;-40
2021/05/26 07:29:37;;;;;;;8.95;4.90;;;;;;;22.19;54.87;100448.33;1707885;82;21144;-35
2021/05/26 07:37:25;;;;;;;7.50;4.40;;;;;;;22.38;53.93;100449.23;1714192;82;21092;-35
2021/05/26 07:44:25;;;;;;;4.30;3.83;;;;;;;22.61;53.25;100444.13;1711324;82;21361;-35
2021/05/26 07:47:24;;;;;;;4.35;2.72;;;;;;;22.70;48.37;100451.70;1722162;81;21953;-40
2021/05/26 07:49:53;;;;;;;7.55;3.65;;;;;;;22.63;48.92;100450.75;1655285;82;21830;-36
2021/05/26 07:52:27;;;;;;;8.18;3.77;;;;;;;22.55;49.91;100447.09;1628188;84;21394;-40
2021/05/26 07:54:55;;;;;;;4.35;3.42;;;;;;;22.56;49.42;100446.17;1686636;83;21622;-35
2021/05/26 07:57:31;;;;;;;4.10;3.58;;;;;;;22.64;48.28;100455.14;1707041;82;21798;-40
2021/05/26 08:00:00;;;;;;;5.97;3.47;;;;;;;22.70;49.09;100453.51;1678082;82;21025;-40
2021/05/26 08:02:31;;;;;;;5.20;3.98;;;;;;;22.81;50.25;100453.86;1686618;82;21110;-40
2021/05/26 08:04:58;;;;;;;5.28;3.65;;;;;;;22.94;49.83;100459.50;1673186;84;21677;-36
2021/05/26 08:07:25;;;;;;;3.40;3.10;;;;;;;23.00;48.82;100454.72;1695720;83;21126;-40
2021/05/26 08:09:52;;;;;;;5.17;4.05;;;;;;;22.93;49.70;100446.63;1686394;83;22270;-41
2021/05/26 08:12:19;;;;;;;4.47;3.67;;;;;;;22.92;50.77;100459.58;1736356;81;21094;-39
2021/05/26 08:14:54;;;;;;;4.67;3.42;;;;;;;22.99;49.44;100449.00;1733547;81;21081;-39
2021/05/26 08:21:37;;;;;;;4.08;3.72;;;;;;;23.11;48.23;100459.53;1734147;81;22114;-35
2021/05/26 08:25:12;;;;;;;5.25;3.45;;;;;;;23.15;49.00;100456.27;1736314;81;21984;-39
2021/05/26 08:29:04;;;;;;;9.25;3.52;;;;;;;23.21;47.91;100458.63;1734883;81;21173;-40
2021/05/26 08:32:58;;;;;;;5.37;3.60;;;;;;;23.36;47.06;100464.03;1737033;81;21093;-35
2021/05/26 08:40:49;;;;;;;3.60;2.98;;;;;;;23.59;47.96;100462.02;1728569;81;21061;-41
2021/05/26 08:44:53;;;;;;;3.60;3.30;;;;;;;23.73;45.32;100454.20;1732607;82;21826;-36
2021/05/26 08:51:54;;;;;;;3.92;3.55;;;;;;;23.68;45.76;100462.06;1728348;81;21492;-34
2021/05/26 08:54:54;;;;;;;8.85;3.47;;;;;;;23.81;47.74;100455.13;1708444;82;21074;-35
2021/05/26 08:57:38;;;;;;;4.60;3.33;;;;;;;24.02;44.98;100453.14;1734894;81;21677;-40
2021/05/26 09:00:22;;;;;;;3.98;3.22;;;;;;;24.13;43.65;100450.28;1736948;82;21102;-35
2021/05/26 09:03:51;;;;;;;4.45;4.00;;;;;;;24.21;44.23;100450.34;1745347;81;21067;-41
2021/05/26 09:07:33;;;;;;;10.75;4.08;;;;;;;24.35;46.95;100457.16;1745158;80;21044;-35
2021/05/26 09:10:18;;;;;;;4.42;3.47;;;;;;;24.26;44.51;100449.63;1747799;80;21372;-40
2021/05/26 09:13:09;;;;;;;;;;;;;;;23.89;44.40;100449.79;1753379;80;21637;-40
2021/05/26 09:16:03;;;;;;;6.25;3.62;;;;;;;23.62;46.14;100452.08;1754250;80;20469;-39
2021/05/26 09:18:30;;;;;;;4.55;3.70;;;;;;;23.58;47.25;100449.61;1718657;82;21110;-39
2021/05/26 09:20:56;;;;;;;4.83;3.77;;;;;;;23.75;46.99;100448.77;1747730;80;21022;-34
2021/05/26 09:23:31;;;;;;;4.40;3.85;;;;;;;23.98;48.63;100446.23;1752252;80;21976;-35
2021/05/26 09:26:00;;;;;;;5.25;3.37;;;;;;;24.09;45.95;100443.84;1702155;80;29337;-35
2021/05/26 09:28:35;;;;;;;6.03;3.42;;;;;;;24.15;44.72;100437.70;1717084;80;21129;-39
2021/05/26 09:31:09;;;;;;;6.78;4.12;;;;;;;24.20;45.95;100437.45;1746477;80;21014;-35
2021/05/26 09:33:41;;;;;;;3.20;2.95;;;;;;;24.31;46.26;100435.53;1748571;80;21724;-34
2021/05/26 09:36:18;;;;;;;5.17;3.50;;;;;;;24.41;45.16;100437.66;1746180;81;21025;-35
2021/05/26 09:38:58;;;;;;;8.88;3.47;;;;;;;24.43;45.53;100435.38;1743997;80;21242;-35
2021/05/26 09:41:30;;;;;;;7.92;3.65;;;;;;;24.40;45.05;100439.05;1746338;80;21335;-34
2021/05/26 09:44:10;;;;;;;6.50;3.42;;;;;;;24.28;45.99;100435.69;1745913;80;21466;-34
2021/05/26 09:46:46;;;;;;;4.47;3.20;;;;;;;24.15;45.79;100435.02;1747958;79;21584;-35
2021/05/26 09:49:18;;;;;;;9.70;3.92;;;;;;;24.08;45.53;100430.10;1748106;80;21467;-40
2021/05/26 09:51:59;;;;;;;4.80;3.92;;;;;;;23.98;46.25;100431.05;1748955;80;21076;-36
2021/05/26 09:54:29;;;;;;;4.05;3.65;;;;;;;23.93;47.05;100426.90;1753010;80;21684;-34
2021/05/26 09:57:09;;;;;;;5.97;2.85;;;;;;;23.94;45.71;100419.27;1748226;80;21002;-34
2021/05/26 09:59:39;;;;;;;5.17;3.33;;;;;;;24.02;43.86;100424.61;1718470;80;21184;-40
2021/05/26 10:02:07;;;;;;;4.00;2.98;;;;;;;24.13;44.04;100424.90;1738456;80;21132;-36
2021/05/26 10:04:52;;;;;;;4.55;3.40;;;;;;;24.23;43.24;100422.56;1705095;82;21667;-39
2021/05/26 10:11:46;;;;;;;4.72;3.15;;;;;;;24.41;43.92;100415.38;1700578;82;21604;-35
2021/05/26 10:15:40;;;;;;;10.25;3.33;;;;;;;24.52;41.96;100414.78;1701572;82;21760;-40
2021/05/26 10:22:17;;;;;;;6.60;3.20;;;;;;;24.18;42.93;100420.65;1703754;82;21002;-36
2021/05/26 10:33:41;;;;;;;5.17;3.20;;;;;;;24.31;43.14;100408.33;1708757;82;21134;-40
2021/05/26 10:36:16;;;;;;;5.78;2.95;;;;;;;24.29;42.18;100406.19;1701847;82;21412;-40
2021/05/26 10:39:00;;;;;;;5.08;3.30;;;;;;;24.26;43.18;100406.86;1715405;81;21129;-39
2021/05/26 10:41:48;;;;;;;5.50;3.10;;;;;;;24.36;45.16;100412.12;1703251;82;21561;-40
2021/05/26 10:44:15;;;;;;;5.50;3.27;;;;;;;24.36;43.17;100407.64;1619160;86;21196;-40
2021/05/26 10:46:44;;;;;;;4.85;3.62;;;;;;;24.48;43.55;100407.91;1639403;84;21091;-40
2021/05/26 10:49:11;;;;;;;4.12;3.72;;;;;;;24.66;43.01;100394.83;1636396;86;21113;-41
2021/05/26 10:51:57;;;;;;;4.55;2.85;;;;;;;24.72;42.56;100394.48;1640966;86;21070;-39
2021/05/26 10:54:44;;;;;;;7.58;3.50;;;;;;;24.66;40.91;100394.35;1635247;86;21702;-40
2021/05/26 10:57:11;;;;;;;4.50;3.30;;;;;;;24.51;42.91;100397.02;1613627;87;21155;-39
2021/05/26 10:59:39;;;;;;;7.03;3.22;;;;;;;24.45;41.96;100391.54;1640506;86;21137;-40
2021/05/26 11:02:15;;;;;;;9.00;3.77;;;;;;;24.49;42.84;100390.43;1636979;86;21492;-40
2021/05/26 11:04:43;;;;;;;5.10;2.80;;;;;;;24.63;42.82;100390.50;1642443;85;21771;-39
2021/05/26 11:07:25;;;;;;;3.27;2.98;;;;;;;24.77;42.77;100383.05;1636165;86;21186;-39
2021/05/26 11:10:02;;;;;;;;;;;;;;;24.88;42.58;100385.11;1671900;84;21385;-39
2021/05/26 11:12:31;;;;;;;7.10;3.42;;;;;;;25.18;42.77;100374.45;1670392;84;20575;-39
2021/05/26 11:14:57;;;;;;;4.83;2.90;;;;;;;25.18;42.77;100374.45;1667628;84;21645;-41
2021/05/26 11:17:27;;;;;;;9.23;3.55;;;;;;;25.30;42.35;100372.37;1664772;86;21775;-42
2021/05/26 11:20:13;;;;;;;5.80;2.87;;;;;;;25.48;41.84;100372.59;1672323;85;21097;-41
2021/05/26 11:22:40;;;;;;;3.72;2.92;;;;;;;25.66;42.41;100373.77;1672692;85;21152;-42
2021/05/26 11:25:10;;;;;;;7.12;2.98;;;;;;;25.75;41.62;100374.59;1673766;84;21716;-34
2021/05/26 11:27:48;;;;;;;3.83;3.20;;;;;;;25.76;41.58;100372.77;1673369;84;21125;-34
2021/05/26 11:30:17;;;;;;;8.30;2.65;;;;;;;25.76;40.78;100372.29;1673625;85;21449;-39
2021/05/26 11:32:44;;;;;;;10.45;3.47;;;;;;;25.73;40.98;100371.98;1716725;81;21105;-39
2021/05/26 11:35:12;;;;;;;5.53;3.12;;;;;;;25.70;39.80;100376.17;1680044;84;21070;-40
2021/05/26 11:37:42;;;;;;;5.40;3.20;;;;;;;25.65;39.40;100370.71;1678584;84;21113;-39
2021/05/26 11:40:24;;;;;;;3.00;2.70;;;;;;;25.58;39.06;100362.20;1682931;84;21112;-40
2021/05/26 11:42:52;;;;;;;3.60;3.30;;;;;;;25.59;39.91;100364.39;1678756;83;21667;-41
2021/05/26 11:45:22;;;;;;;3.58;3.12;;;;;;;25.61;40.30;100365.16;1679582;84;21109;-35
2021/05/26 11:47:58;;;;;;;8.98;3.37;;;;;;;25.66;40.34;100367.93;1678333;84;21082;-39
2021/05/26 11:50:27;;;;;;;7.03;2.45;;;;;;;25.69;39.45;100365.08;1682177;84;21616;-35
2021/05/26 11:53:13;;;;;;;6.58;3.83;;;;;;;25.65;39.03;100370.71;1673365;84;21149;-37
2021/05/26 11:55:36;;;;;;;11.15;3.92;;;;;;;25.50;39.60;100369.81;1668902;84;21697;-35
2021/05/26 11:58:03;;;;;;;6.12;3.70;;;;;;;25.32;40.31;100362.91;1671260;84;21509;-35
2021/05/26 12:00:35;;;;;;;6.00;3.55;;;;;;;25.20;42.25;100363.16;1670545;85;21125;-35
2021/05/26 12:03:08;;;;;;;10.38;3.80;;;;;;;25.11;42.64;100358.38;1682609;84;21219;-35
2021/05/26 12:05:44;;;;;;;7.80;3.90;;;;;;;25.07;42.46;100363.52;1710046;82;21090;-35
2021/05/26 12:08:24;;;;;;;3.80;3.25;;;;;;;25.11;41.01;100366.41;1710854;82;21694;-36
2021/05/26 12:11:02;;;;;;;4.85;3.77;;;;;;;25.09;40.41;100358.91;1692491;84;21101;-39
2021/05/26 12:13:41;;;;;;;5.45;3.30;;;;;;;25.02;40.99;100358.39;1702187;84;21137;-35
2021/05/26 12:16:10;;;;;;;7.67;3.62;;;;;;;24.96;41.98;100354.73;1699595;84;21094;-36
2021/05/26 12:18:38;;;;;;;13.62;3.45;;;;;;;24.96;41.79;100350.72;1703863;84;21071;-34
2021/05/26 12:21:06;;;;;;;10.10;4.10;;;;;;;25.11;41.61;100350.34;1706278;84;21911;-35
2021/05/26 12:23:47;;;;;;;4.45;3.30;;;;;;;25.17;40.51;100349.49;1718887;83;21093;-39
2021/05/26 12:26:31;;;;;;;12.95;3.50;;;;;;;25.16;42.15;100354.92;1693837;84;21074;-35
2021/05/26 12:29:10;;;;;;;4.17;3.77;;;;;;;25.03;42.56;100357.91;1707993;83;21152;-35
2021/05/26 12:31:38;;;;;;;5.08;2.80;;;;;;;24.89;41.47;100351.56;1736736;82;21916;-39
2021/05/26 12:34:16;;;;;;;8.55;3.42;;;;;;;24.85;41.40;100345.14;1729024;83;21069;-39
2021/05/26 12:36:52;;;;;;;3.95;3.17;;;;;;;24.93;41.08;100344.20;1718827;83;21054;-39
2021/05/26 12:39:21;;;;;;;5.83;3.65;;;;;;;25.07;41.44;100338.09;1683149;83;21089;-35
2021/05/26 12:41:50;;;;;;;8.45;3.12;;;;;;;25.17;40.18;100332.58;1737463;82;21546;-35
2021/05/26 12:44:21;;;;;;;3.00;2.70;;;;;;;25.23;40.64;100335.36;1713983;82;21048;-39
2021/05/26 12:46:53;;;;;;;4.60;2.62;;;;;;;25.35;38.70;100332.80;1742672;82;21033;-35
2021/05/26 12:49:36;;;;;;;3.60;2.62;;;;;;;25.52;39.86;100337.61;1742656;82;21035;-35
2021/05/26 12:52:07;;;;;;;3.77;2.60;;;;;;;25.59;37.84;100329.09;1742134;82;21054;-35
2021/05/26 12:54:47;;;;;;;5.55;2.80;;;;;;;25.58;39.10;100331.87;1739338;82;21110;-40
2021/05/26 12:57:16;;;;;;;3.47;3.10;;;;;;;25.56;39.76;100318.55;1716864;82;21119;-36
2021/05/26 12:59:43;;;;;;;5.90;2.70;;;;;;;25.63;38.25;100318.58;1711799;82;21101;-36
2021/05/26 13:02:12;;;;;;;4.03;3.05;;;;;;;25.75;39.23;100316.98;1742478;82;21121;-35
2021/05/26 13:04:49;;;;;;;6.92;2.80;;;;;;;25.86;39.93;100317.17;1741261;82;21125;-40
2021/05/26 13:07:36;;;;;;;4.20;2.75;;;;;;;25.97;38.98;100307.95;1741003;82;21109;-41
2021/05/26 13:10:23;;;;;;;6.37;3.08;;;;;;;26.01;38.40;100304.60;1740609;82;21608;-36
2021/05/26 13:12:52;;;;;;;5.55;3.22;;;;;;;26.00;40.13;100302.89;1734923;82;21112;-36
2021/05/26 13:15:33;;;;;;;3.42;3.00;;;;;;;25.99;39.33;100306.05;1721232;82;21499;-36
2021/05/26 13:18:01;;;;;;;4.12;3.15;;;;;;;26.02;39.43;100305.46;1718790;82;21089;-36
2021/05/26 13:20:34;;;;;;;8.65;3.42;;;;;;;26.04;39.58;100299.55;1718411;83;21106;-36
2021/05/26 13:23:01;;;;;;;5.65;2.75;;;;;;;25.91;38.37;100293.59;1718995;83;21113;-35
2021/05/26 13:25:29;;;;;;;3.37;2.80;;;;;;;25.75;39.19;100292.02;1718666;83;21121;-40
2021/05/26 13:27:56;;;;;;;7.35;2.80;;;;;;;25.63;39.90;100288.26;1718930;83;21128;-40
2021/05/26 13:30:26;;;;;;;8.08;3.15;;;;;;;25.51;39.57;100281.81;1718566;83;21101;-35
2021/05/26 13:32:53;;;;;;;7.95;3.25;;;;;;;25.36;40.59;100282.30;1718740;81;21098;-35
2021/05/26 13:35:20;;;;;;;4.75;3.87;;;;;;;25.27;41.17;100279.32;1718570;83;21070;-40
2021/05/26 13:37:47;;;;;;;3.05;2.65;;;;;;;25.18;41.38;100286.97;1718765;83;21094;-35
2021/05/26 13:40:16;;;;;;;4.05;2.70;;;;;;;25.09;41.45;100282.64;1718415;82;21604;-35
2021/05/26 13:42:43;;;;;;;3.20;2.90;;;;;;;25.04;41.89;100279.34;1716276;82;21109;-40
2021/05/26 13:45:11;;;;;;;5.03;3.15;;;;;;;24.98;41.47;100267.19;1727993;82;21080;-40
2021/05/26 13:47:38;;;;;;;6.30;3.12;;;;;;;24.96;41.90;100266.44;1735972;82;21128;-35
2021/05/26 13:50:07;;;;;;;4.42;2.83;;;;;;;24.88;40.90;100270.91;1719331;82;21084;-35
2021/05/26 13:52:35;;;;;;;11.68;3.10;;;;;;;24.83;41.57;100265.45;1740558;82;21145;-35
2021/05/26 13:55:02;;;;;;;3.30;3.00;;;;;;;24.82;41.84;100270.42;1718648;82;21095;-40
